sensor_id;sensor_type;location;lat;lon;timestamp;P1;durP1;ratioP1;P2;durP2;ratioP2
22490;SDS011;11412;50.802;4.350;2023-02-15T00:00:19;35.90;;;21.35;;
22490;SDS011;11412;50.802;4.350;2023-02-15T00:02:45;37.42;;;21.63;;
22490;SDS011;11412;50.802;4.350;2023-02-15T00:05:11;37.20;;;21.42;;
22490;SDS011;11412;50.802;4.350;2023-02-15T00:07:37;37.92;;;21.70;;
22490;SDS011;11412;50.802;4.350;2023-02-15T00:10:02;36.67;;;20.77;;
22490;SDS011;11412;50.802;4.350;2023-02-15T00:12:28;34.15;;;20.48;;
22490;SDS011;11412;50.802;4.350;2023-02-15T00:14:54;37.28;;;21.92;;
22490;SDS011;11412;50.802;4.350;2023-02-15T00:17:20;36.72;;;19.95;;
22490;SDS011;11412;50.802;4.350;2023-02-15T00:19:46;38.78;;;21.08;;
22490;SDS011;11412;50.802;4.350;2023-02-15T00:22:13;36.28;;;21.17;;
22490;SDS011;11412;50.802;4.350;2023-02-15T00:24:38;41.15;;;23.63;;
22490;SDS011;11412;50.802;4.350;2023-02-15T00:27:04;46.50;;;24.45;;
22490;SDS011;11412;50.802;4.350;2023-02-15T00:29:30;37.25;;;22.52;;
22490;SDS011;11412;50.802;4.350;2023-02-15T00:31:56;39.20;;;22.25;;
22490;SDS011;11412;50.802;4.350;2023-02-15T00:34:23;41.58;;;21.67;;
22490;SDS011;11412;50.802;4.350;2023-02-15T00:36:51;40.10;;;23.95;;
22490;SDS011;11412;50.802;4.350;2023-02-15T00:39:17;39.15;;;22.67;;
22490;SDS011;11412;50.802;4.350;2023-02-15T00:41:43;44.35;;;24.10;;
22490;SDS011;11412;50.802;4.350;2023-02-15T00:44:10;39.75;;;22.42;;
22490;SDS011;11412;50.802;4.350;2023-02-15T00:46:36;39.15;;;22.95;;
22490;SDS011;11412;50.802;4.350;2023-02-15T00:49:02;39.80;;;22.48;;
22490;SDS011;11412;50.802;4.350;2023-02-15T00:51:28;42.05;;;23.05;;
22490;SDS011;11412;50.802;4.350;2023-02-15T00:53:54;43.13;;;23.67;;
22490;SDS011;11412;50.802;4.350;2023-02-15T00:56:20;40.72;;;23.65;;
22490;SDS011;11412;50.802;4.350;2023-02-15T00:58:46;47.85;;;25.02;;
22490;SDS011;11412;50.802;4.350;2023-02-15T01:01:13;41.22;;;23.27;;
22490;SDS011;11412;50.802;4.350;2023-02-15T01:03:41;43.17;;;24.50;;
22490;SDS011;11412;50.802;4.350;2023-02-15T01:06:07;39.70;;;23.55;;
22490;SDS011;11412;50.802;4.350;2023-02-15T01:08:33;40.85;;;24.73;;
22490;SDS011;11412;50.802;4.350;2023-02-15T01:11:02;51.25;;;26.23;;
22490;SDS011;11412;50.802;4.350;2023-02-15T01:13:32;42.90;;;24.70;;
22490;SDS011;11412;50.802;4.350;2023-02-15T01:15:59;39.80;;;24.27;;
22490;SDS011;11412;50.802;4.350;2023-02-15T01:18:25;43.90;;;24.17;;
22490;SDS011;11412;50.802;4.350;2023-02-15T01:20:51;44.80;;;25.02;;
22490;SDS011;11412;50.802;4.350;2023-02-15T01:23:17;43.13;;;25.00;;
22490;SDS011;11412;50.802;4.350;2023-02-15T01:25:42;46.40;;;23.88;;
22490;SDS011;11412;50.802;4.350;2023-02-15T01:28:08;49.00;;;25.52;;
22490;SDS011;11412;50.802;4.350;2023-02-15T01:30:34;43.35;;;23.77;;
22490;SDS011;11412;50.802;4.350;2023-02-15T01:33:00;44.50;;;25.02;;
22490;SDS011;11412;50.802;4.350;2023-02-15T01:35:26;47.00;;;24.25;;
22490;SDS011;11412;50.802;4.350;2023-02-15T01:37:52;47.72;;;23.80;;
22490;SDS011;11412;50.802;4.350;2023-02-15T01:40:18;42.65;;;24.45;;
22490;SDS011;11412;50.802;4.350;2023-02-15T01:42:44;42.60;;;23.33;;
22490;SDS011;11412;50.802;4.350;2023-02-15T01:45:21;43.38;;;23.48;;
22490;SDS011;11412;50.802;4.350;2023-02-15T01:50:26;44.47;;;22.83;;
22490;SDS011;11412;50.802;4.350;2023-02-15T01:55:29;39.72;;;23.05;;
22490;SDS011;11412;50.802;4.350;2023-02-15T01:57:59;44.10;;;23.17;;
22490;SDS011;11412;50.802;4.350;2023-02-15T02:00:26;38.88;;;22.65;;
22490;SDS011;11412;50.802;4.350;2023-02-15T02:02:52;44.92;;;23.42;;
22490;SDS011;11412;50.802;4.350;2023-02-15T02:05:20;39.97;;;23.23;;
22490;SDS011;11412;50.802;4.350;2023-02-15T02:07:46;40.05;;;22.63;;
22490;SDS011;11412;50.802;4.350;2023-02-15T02:10:15;39.90;;;22.45;;
22490;SDS011;11412;50.802;4.350;2023-02-15T02:12:43;52.80;;;25.25;;
22490;SDS011;11412;50.802;4.350;2023-02-15T02:15:11;45.95;;;23.95;;
22490;SDS011;11412;50.802;4.350;2023-02-15T02:31:02;40.95;;;22.67;;
22490;SDS011;11412;50.802;4.350;2023-02-15T02:42:40;36.30;;;21.45;;
22490;SDS011;11412;50.802;4.350;2023-02-15T02:45:10;38.47;;;21.45;;
22490;SDS011;11412;50.802;4.350;2023-02-15T02:47:52;37.45;;;21.75;;
22490;SDS011;11412;50.802;4.350;2023-02-15T02:50:26;40.83;;;22.73;;
22490;SDS011;11412;50.802;4.350;2023-02-15T02:52:54;37.58;;;21.63;;
22490;SDS011;11412;50.802;4.350;2023-02-15T02:57:57;38.20;;;21.98;;
22490;SDS011;11412;50.802;4.350;2023-02-15T03:00:31;40.15;;;22.60;;
22490;SDS011;11412;50.802;4.350;2023-02-15T03:03:06;36.17;;;21.40;;
22490;SDS011;11412;50.802;4.350;2023-02-15T03:05:37;43.67;;;25.23;;
22490;SDS011;11412;50.802;4.350;2023-02-15T03:08:06;39.35;;;21.83;;
22490;SDS011;11412;50.802;4.350;2023-02-15T03:10:35;37.42;;;21.95;;
22490;SDS011;11412;50.802;4.350;2023-02-15T03:13:01;40.40;;;23.48;;
22490;SDS011;11412;50.802;4.350;2023-02-15T03:15:31;42.60;;;23.25;;
22490;SDS011;11412;50.802;4.350;2023-02-15T03:18:22;40.28;;;23.30;;
22490;SDS011;11412;50.802;4.350;2023-02-15T03:20:50;36.22;;;21.42;;
22490;SDS011;11412;50.802;4.350;2023-02-15T03:23:21;36.35;;;22.35;;
22490;SDS011;11412;50.802;4.350;2023-02-15T03:25:52;34.80;;;20.98;;
22490;SDS011;11412;50.802;4.350;2023-02-15T03:28:27;35.97;;;21.77;;
22490;SDS011;11412;50.802;4.350;2023-02-15T03:31:06;41.93;;;22.90;;
22490;SDS011;11412;50.802;4.350;2023-02-15T03:33:35;37.67;;;21.98;;
22490;SDS011;11412;50.802;4.350;2023-02-15T03:36:24;33.10;;;20.65;;
22490;SDS011;11412;50.802;4.350;2023-02-15T03:39:08;41.55;;;24.33;;
22490;SDS011;11412;50.802;4.350;2023-02-15T03:42:30;44.38;;;24.85;;
22490;SDS011;11412;50.802;4.350;2023-02-15T03:44:41;39.35;;;21.95;;
22490;SDS011;11412;50.802;4.350;2023-02-15T03:47:27;39.25;;;23.17;;
22490;SDS011;11412;50.802;4.350;2023-02-15T03:50:10;37.88;;;23.58;;
22490;SDS011;11412;50.802;4.350;2023-02-15T03:53:05;42.13;;;24.23;;
22490;SDS011;11412;50.802;4.350;2023-02-15T03:55:34;36.60;;;23.50;;
22490;SDS011;11412;50.802;4.350;2023-02-15T03:58:00;40.25;;;23.73;;
22490;SDS011;11412;50.802;4.350;2023-02-15T04:00:47;34.63;;;21.98;;
22490;SDS011;11412;50.802;4.350;2023-02-15T04:03:45;42.03;;;24.45;;
22490;SDS011;11412;50.802;4.350;2023-02-15T04:06:20;36.28;;;22.05;;
22490;SDS011;11412;50.802;4.350;2023-02-15T04:08:46;32.85;;;21.92;;
22490;SDS011;11412;50.802;4.350;2023-02-15T04:11:30;40.85;;;21.42;;
22490;SDS011;11412;50.802;4.350;2023-02-15T04:13:56;31.73;;;20.92;;
22490;SDS011;11412;50.802;4.350;2023-02-15T04:16:22;34.50;;;21.95;;
22490;SDS011;11412;50.802;4.350;2023-02-15T04:18:48;33.00;;;21.73;;
22490;SDS011;11412;50.802;4.350;2023-02-15T04:21:33;37.60;;;21.60;;
22490;SDS011;11412;50.802;4.350;2023-02-15T04:27:02;35.58;;;21.75;;
22490;SDS011;11412;50.802;4.350;2023-02-15T04:29:29;36.28;;;21.65;;
22490;SDS011;11412;50.802;4.350;2023-02-15T04:31:57;36.45;;;21.42;;
22490;SDS011;11412;50.802;4.350;2023-02-15T04:34:24;34.25;;;20.80;;
22490;SDS011;11412;50.802;4.350;2023-02-15T04:36:50;35.58;;;21.48;;
22490;SDS011;11412;50.802;4.350;2023-02-15T04:39:16;35.17;;;21.67;;
22490;SDS011;11412;50.802;4.350;2023-02-15T04:41:43;35.25;;;22.10;;
22490;SDS011;11412;50.802;4.350;2023-02-15T04:44:08;33.80;;;21.73;;
22490;SDS011;11412;50.802;4.350;2023-02-15T04:46:35;31.73;;;19.75;;
22490;SDS011;11412;50.802;4.350;2023-02-15T04:49:00;32.92;;;20.55;;
22490;SDS011;11412;50.802;4.350;2023-02-15T04:51:26;30.58;;;20.27;;
22490;SDS011;11412;50.802;4.350;2023-02-15T04:53:53;31.08;;;20.38;;
22490;SDS011;11412;50.802;4.350;2023-02-15T04:56:19;32.38;;;20.77;;
22490;SDS011;11412;50.802;4.350;2023-02-15T04:58:45;34.85;;;21.42;;
22490;SDS011;11412;50.802;4.350;2023-02-15T05:01:11;32.78;;;21.15;;
22490;SDS011;11412;50.802;4.350;2023-02-15T05:03:37;29.15;;;19.33;;
22490;SDS011;11412;50.802;4.350;2023-02-15T05:06:03;35.33;;;20.73;;
22490;SDS011;11412;50.802;4.350;2023-02-15T05:08:29;34.25;;;20.40;;
22490;SDS011;11412;50.802;4.350;2023-02-15T05:10:54;35.60;;;21.38;;
22490;SDS011;11412;50.802;4.350;2023-02-15T05:13:20;35.72;;;21.20;;
22490;SDS011;11412;50.802;4.350;2023-02-15T05:15:46;33.15;;;20.73;;
22490;SDS011;11412;50.802;4.350;2023-02-15T05:18:16;31.83;;;21.42;;
22490;SDS011;11412;50.802;4.350;2023-02-15T05:20:43;33.42;;;21.15;;
22490;SDS011;11412;50.802;4.350;2023-02-15T05:23:09;36.22;;;22.23;;
22490;SDS011;11412;50.802;4.350;2023-02-15T05:25:35;32.55;;;20.70;;
22490;SDS011;11412;50.802;4.350;2023-02-15T05:30:49;37.42;;;22.95;;
22490;SDS011;11412;50.802;4.350;2023-02-15T05:33:16;36.97;;;23.33;;
22490;SDS011;11412;50.802;4.350;2023-02-15T05:35:42;37.80;;;23.55;;
22490;SDS011;11412;50.802;4.350;2023-02-15T05:38:08;39.00;;;23.63;;
22490;SDS011;11412;50.802;4.350;2023-02-15T05:40:34;38.15;;;23.75;;
22490;SDS011;11412;50.802;4.350;2023-02-15T05:42:59;34.05;;;21.10;;
22490;SDS011;11412;50.802;4.350;2023-02-15T05:45:25;35.65;;;22.20;;
22490;SDS011;11412;50.802;4.350;2023-02-15T05:47:51;32.65;;;20.88;;
22490;SDS011;11412;50.802;4.350;2023-02-15T05:50:16;32.85;;;22.08;;
22490;SDS011;11412;50.802;4.350;2023-02-15T05:52:42;35.90;;;22.63;;
22490;SDS011;11412;50.802;4.350;2023-02-15T05:55:08;35.28;;;22.30;;
22490;SDS011;11412;50.802;4.350;2023-02-15T05:57:34;32.45;;;20.38;;
22490;SDS011;11412;50.802;4.350;2023-02-15T06:00:01;33.15;;;22.58;;
22490;SDS011;11412;50.802;4.350;2023-02-15T06:02:29;41.92;;;24.05;;
22490;SDS011;11412;50.802;4.350;2023-02-15T06:04:57;39.58;;;22.67;;
22490;SDS011;11412;50.802;4.350;2023-02-15T06:07:23;35.55;;;22.30;;
22490;SDS011;11412;50.802;4.350;2023-02-15T06:09:49;37.20;;;22.55;;
22490;SDS011;11412;50.802;4.350;2023-02-15T06:12:15;35.22;;;21.63;;
22490;SDS011;11412;50.802;4.350;2023-02-15T06:14:40;37.90;;;24.35;;
22490;SDS011;11412;50.802;4.350;2023-02-15T06:17:06;38.08;;;22.60;;
22490;SDS011;11412;50.802;4.350;2023-02-15T06:19:32;35.13;;;22.65;;
22490;SDS011;11412;50.802;4.350;2023-02-15T06:21:57;32.47;;;22.75;;
22490;SDS011;11412;50.802;4.350;2023-02-15T06:24:23;41.80;;;24.17;;
22490;SDS011;11412;50.802;4.350;2023-02-15T06:26:48;41.65;;;24.15;;
22490;SDS011;11412;50.802;4.350;2023-02-15T06:29:14;38.92;;;23.73;;
22490;SDS011;11412;50.802;4.350;2023-02-15T06:31:40;33.90;;;21.90;;
22490;SDS011;11412;50.802;4.350;2023-02-15T06:34:06;37.55;;;23.55;;
22490;SDS011;11412;50.802;4.350;2023-02-15T06:36:31;37.95;;;22.50;;
22490;SDS011;11412;50.802;4.350;2023-02-15T06:38:57;40.47;;;22.70;;
22490;SDS011;11412;50.802;4.350;2023-02-15T06:41:23;39.25;;;23.33;;
22490;SDS011;11412;50.802;4.350;2023-02-15T06:43:49;41.28;;;24.15;;
22490;SDS011;11412;50.802;4.350;2023-02-15T06:46:15;39.85;;;24.33;;
22490;SDS011;11412;50.802;4.350;2023-02-15T06:48:40;38.63;;;23.90;;
22490;SDS011;11412;50.802;4.350;2023-02-15T06:51:06;45.25;;;25.63;;
22490;SDS011;11412;50.802;4.350;2023-02-15T06:53:32;34.92;;;23.35;;
22490;SDS011;11412;50.802;4.350;2023-02-15T06:56:05;36.72;;;23.33;;
22490;SDS011;11412;50.802;4.350;2023-02-15T06:58:34;39.17;;;24.40;;
22490;SDS011;11412;50.802;4.350;2023-02-15T07:01:00;40.40;;;23.63;;
22490;SDS011;11412;50.802;4.350;2023-02-15T07:03:26;44.70;;;24.60;;
22490;SDS011;11412;50.802;4.350;2023-02-15T07:05:55;41.58;;;24.27;;
22490;SDS011;11412;50.802;4.350;2023-02-15T07:08:23;39.60;;;24.05;;
22490;SDS011;11412;50.802;4.350;2023-02-15T07:10:50;40.17;;;23.90;;
22490;SDS011;11412;50.802;4.350;2023-02-15T07:13:16;38.58;;;23.13;;
22490;SDS011;11412;50.802;4.350;2023-02-15T07:15:42;38.05;;;24.33;;
22490;SDS011;11412;50.802;4.350;2023-02-15T07:18:08;42.47;;;23.77;;
22490;SDS011;11412;50.802;4.350;2023-02-15T07:20:35;39.20;;;24.65;;
22490;SDS011;11412;50.802;4.350;2023-02-15T07:23:02;40.38;;;24.15;;
22490;SDS011;11412;50.802;4.350;2023-02-15T07:25:29;41.05;;;23.75;;
22490;SDS011;11412;50.802;4.350;2023-02-15T07:27:58;37.10;;;22.48;;
22490;SDS011;11412;50.802;4.350;2023-02-15T07:30:27;39.78;;;23.65;;
22490;SDS011;11412;50.802;4.350;2023-02-15T07:32:57;39.78;;;24.65;;
22490;SDS011;11412;50.802;4.350;2023-02-15T07:35:48;41.28;;;24.80;;
22490;SDS011;11412;50.802;4.350;2023-02-15T07:38:15;39.22;;;23.45;;
22490;SDS011;11412;50.802;4.350;2023-02-15T07:40:41;39.72;;;23.75;;
22490;SDS011;11412;50.802;4.350;2023-02-15T07:43:07;42.30;;;24.42;;
22490;SDS011;11412;50.802;4.350;2023-02-15T07:45:32;37.75;;;23.67;;
22490;SDS011;11412;50.802;4.350;2023-02-15T07:47:59;41.67;;;23.50;;
22490;SDS011;11412;50.802;4.350;2023-02-15T07:50:25;38.33;;;23.40;;
22490;SDS011;11412;50.802;4.350;2023-02-15T07:52:51;42.45;;;25.20;;
22490;SDS011;11412;50.802;4.350;2023-02-15T07:55:17;39.80;;;23.33;;
22490;SDS011;11412;50.802;4.350;2023-02-15T07:57:46;41.70;;;22.67;;
22490;SDS011;11412;50.802;4.350;2023-02-15T08:00:15;40.10;;;24.75;;
22490;SDS011;11412;50.802;4.350;2023-02-15T08:02:42;42.15;;;23.48;;
22490;SDS011;11412;50.802;4.350;2023-02-15T08:05:12;38.25;;;23.58;;
22490;SDS011;11412;50.802;4.350;2023-02-15T08:07:38;41.67;;;24.48;;
22490;SDS011;11412;50.802;4.350;2023-02-15T08:10:03;40.67;;;24.17;;
22490;SDS011;11412;50.802;4.350;2023-02-15T08:12:29;38.90;;;24.08;;
22490;SDS011;11412;50.802;4.350;2023-02-15T08:14:55;36.20;;;22.38;;
22490;SDS011;11412;50.802;4.350;2023-02-15T08:17:21;41.42;;;23.17;;
22490;SDS011;11412;50.802;4.350;2023-02-15T08:19:46;37.00;;;22.73;;
22490;SDS011;11412;50.802;4.350;2023-02-15T08:22:13;40.03;;;22.13;;
22490;SDS011;11412;50.802;4.350;2023-02-15T08:24:39;38.25;;;22.08;;
22490;SDS011;11412;50.802;4.350;2023-02-15T08:27:07;37.28;;;22.10;;
22490;SDS011;11412;50.802;4.350;2023-02-15T08:29:35;38.50;;;22.23;;
22490;SDS011;11412;50.802;4.350;2023-02-15T08:32:03;37.55;;;22.10;;
22490;SDS011;11412;50.802;4.350;2023-02-15T08:34:32;39.50;;;20.30;;
22490;SDS011;11412;50.802;4.350;2023-02-15T08:37:00;32.38;;;19.98;;
22490;SDS011;11412;50.802;4.350;2023-02-15T08:39:26;35.25;;;19.73;;
22490;SDS011;11412;50.802;4.350;2023-02-15T08:41:52;29.17;;;18.55;;
22490;SDS011;11412;50.802;4.350;2023-02-15T08:44:18;30.63;;;18.63;;
22490;SDS011;11412;50.802;4.350;2023-02-15T08:46:45;36.38;;;19.40;;
22490;SDS011;11412;50.802;4.350;2023-02-15T08:49:13;36.92;;;19.48;;
22490;SDS011;11412;50.802;4.350;2023-02-15T08:51:42;33.38;;;18.30;;
22490;SDS011;11412;50.802;4.350;2023-02-15T08:54:09;28.58;;;17.20;;
22490;SDS011;11412;50.802;4.350;2023-02-15T08:56:38;28.77;;;17.80;;
22490;SDS011;11412;50.802;4.350;2023-02-15T08:59:05;28.33;;;17.27;;
22490;SDS011;11412;50.802;4.350;2023-02-15T09:01:34;33.30;;;18.33;;
22490;SDS011;11412;50.802;4.350;2023-02-15T09:04:08;30.70;;;17.90;;
22490;SDS011;11412;50.802;4.350;2023-02-15T09:06:37;28.85;;;17.83;;
22490;SDS011;11412;50.802;4.350;2023-02-15T09:09:04;30.70;;;18.48;;
22490;SDS011;11412;50.802;4.350;2023-02-15T09:11:31;32.47;;;18.05;;
22490;SDS011;11412;50.802;4.350;2023-02-15T09:14:00;29.60;;;18.50;;
22490;SDS011;11412;50.802;4.350;2023-02-15T09:16:35;33.17;;;18.02;;
22490;SDS011;11412;50.802;4.350;2023-02-15T09:19:04;29.23;;;18.08;;
22490;SDS011;11412;50.802;4.350;2023-02-15T09:21:31;29.38;;;18.38;;
22490;SDS011;11412;50.802;4.350;2023-02-15T09:23:59;28.60;;;18.13;;
22490;SDS011;11412;50.802;4.350;2023-02-15T09:26:27;30.48;;;18.92;;
22490;SDS011;11412;50.802;4.350;2023-02-15T09:28:55;31.30;;;18.48;;
22490;SDS011;11412;50.802;4.350;2023-02-15T09:31:23;28.63;;;19.38;;
22490;SDS011;11412;50.802;4.350;2023-02-15T09:33:51;27.48;;;19.05;;
22490;SDS011;11412;50.802;4.350;2023-02-15T09:36:34;30.52;;;18.85;;
22490;SDS011;11412;50.802;4.350;2023-02-15T09:39:04;30.45;;;18.20;;
22490;SDS011;11412;50.802;4.350;2023-02-15T09:57:53;32.65;;;19.42;;
22490;SDS011;11412;50.802;4.350;2023-02-15T10:03:22;36.38;;;21.98;;
22490;SDS011;11412;50.802;4.350;2023-02-15T10:14:12;36.47;;;21.35;;
22490;SDS011;11412;50.802;4.350;2023-02-15T10:19:53;45.00;;;21.98;;
22490;SDS011;11412;50.802;4.350;2023-02-15T10:28:40;31.70;;;20.13;;
22490;SDS011;11412;50.802;4.350;2023-02-15T10:31:24;35.40;;;21.75;;
22490;SDS011;11412;50.802;4.350;2023-02-15T10:36:47;32.28;;;20.23;;
22490;SDS011;11412;50.802;4.350;2023-02-15T10:45:33;34.97;;;20.58;;
22490;SDS011;11412;50.802;4.350;2023-02-15T10:51:26;31.35;;;20.08;;
22490;SDS011;11412;50.802;4.350;2023-02-15T10:54:15;32.03;;;19.58;;
22490;SDS011;11412;50.802;4.350;2023-02-15T10:57:07;30.57;;;20.13;;
22490;SDS011;11412;50.802;4.350;2023-02-15T11:00:00;29.58;;;18.20;;
22490;SDS011;11412;50.802;4.350;2023-02-15T11:07:59;30.00;;;19.10;;
22490;SDS011;11412;50.802;4.350;2023-02-15T11:10:34;30.63;;;19.55;;
22490;SDS011;11412;50.802;4.350;2023-02-15T11:13:10;32.45;;;19.77;;
22490;SDS011;11412;50.802;4.350;2023-02-15T11:15:40;34.15;;;20.85;;
22490;SDS011;11412;50.802;4.350;2023-02-15T11:20:53;29.02;;;18.77;;
22490;SDS011;11412;50.802;4.350;2023-02-15T11:23:23;31.02;;;19.25;;
22490;SDS011;11412;50.802;4.350;2023-02-15T11:26:34;36.30;;;18.98;;
22490;SDS011;11412;50.802;4.350;2023-02-15T11:31:43;30.55;;;19.45;;
22490;SDS011;11412;50.802;4.350;2023-02-15T11:34:30;40.90;;;19.83;;
22490;SDS011;11412;50.802;4.350;2023-02-15T11:37:10;34.72;;;20.70;;
22490;SDS011;11412;50.802;4.350;2023-02-15T11:39:40;30.73;;;19.30;;
22490;SDS011;11412;50.802;4.350;2023-02-15T11:42:14;31.50;;;19.80;;
22490;SDS011;11412;50.802;4.350;2023-02-15T11:44:47;32.17;;;20.58;;
22490;SDS011;11412;50.802;4.350;2023-02-15T11:47:25;34.17;;;21.05;;
22490;SDS011;11412;50.802;4.350;2023-02-15T11:49:51;37.05;;;20.45;;
22490;SDS011;11412;50.802;4.350;2023-02-15T11:52:16;32.65;;;22.10;;
22490;SDS011;11412;50.802;4.350;2023-02-15T11:54:44;32.75;;;20.55;;
22490;SDS011;11412;50.802;4.350;2023-02-15T11:57:23;34.90;;;21.42;;
22490;SDS011;11412;50.802;4.350;2023-02-15T12:00:01;37.83;;;22.70;;
22490;SDS011;11412;50.802;4.350;2023-02-15T12:02:33;37.70;;;22.38;;
22490;SDS011;11412;50.802;4.350;2023-02-15T12:05:07;37.20;;;22.33;;
22490;SDS011;11412;50.802;4.350;2023-02-15T12:07:40;39.95;;;23.17;;
22490;SDS011;11412;50.802;4.350;2023-02-15T12:10:22;35.22;;;23.60;;
22490;SDS011;11412;50.802;4.350;2023-02-15T12:13:16;37.92;;;23.05;;
22490;SDS011;11412;50.802;4.350;2023-02-15T12:15:47;38.42;;;23.80;;
22490;SDS011;11412;50.802;4.350;2023-02-15T12:18:58;36.88;;;23.48;;
22490;SDS011;11412;50.802;4.350;2023-02-15T12:21:13;42.00;;;23.88;;
22490;SDS011;11412;50.802;4.350;2023-02-15T12:23:53;37.78;;;24.23;;
22490;SDS011;11412;50.802;4.350;2023-02-15T12:26:27;38.25;;;23.30;;
22490;SDS011;11412;50.802;4.350;2023-02-15T12:28:56;39.35;;;24.45;;
22490;SDS011;11412;50.802;4.350;2023-02-15T12:31:27;37.70;;;23.42;;
22490;SDS011;11412;50.802;4.350;2023-02-15T12:33:57;39.22;;;24.10;;
22490;SDS011;11412;50.802;4.350;2023-02-15T12:36:30;42.88;;;24.40;;
22490;SDS011;11412;50.802;4.350;2023-02-15T12:41:38;36.70;;;22.52;;
22490;SDS011;11412;50.802;4.350;2023-02-15T12:44:16;36.97;;;22.85;;
22490;SDS011;11412;50.802;4.350;2023-02-15T12:47:03;34.70;;;22.10;;
22490;SDS011;11412;50.802;4.350;2023-02-15T12:49:41;37.30;;;22.77;;
22490;SDS011;11412;50.802;4.350;2023-02-15T12:54:42;37.38;;;23.55;;
22490;SDS011;11412;50.802;4.350;2023-02-15T12:57:42;34.53;;;22.42;;
22490;SDS011;11412;50.802;4.350;2023-02-15T13:00:04;34.90;;;22.50;;
22490;SDS011;11412;50.802;4.350;2023-02-15T13:02:52;32.65;;;22.65;;
22490;SDS011;11412;50.802;4.350;2023-02-15T13:05:21;37.30;;;22.58;;
22490;SDS011;11412;50.802;4.350;2023-02-15T13:08:10;36.15;;;22.42;;
22490;SDS011;11412;50.802;4.350;2023-02-15T13:13:24;38.70;;;23.67;;
22490;SDS011;11412;50.802;4.350;2023-02-15T13:15:53;35.38;;;22.40;;
22490;SDS011;11412;50.802;4.350;2023-02-15T13:18:33;35.28;;;23.05;;
22490;SDS011;11412;50.802;4.350;2023-02-15T13:21:12;32.92;;;22.40;;
22490;SDS011;11412;50.802;4.350;2023-02-15T13:23:42;35.15;;;23.20;;
22490;SDS011;11412;50.802;4.350;2023-02-15T13:26:22;31.27;;;21.52;;
22490;SDS011;11412;50.802;4.350;2023-02-15T13:28:55;32.72;;;22.70;;
22490;SDS011;11412;50.802;4.350;2023-02-15T13:31:26;40.25;;;24.00;;
22490;SDS011;11412;50.802;4.350;2023-02-15T13:33:59;37.85;;;24.17;;
22490;SDS011;11412;50.802;4.350;2023-02-15T13:36:34;34.28;;;23.15;;
22490;SDS011;11412;50.802;4.350;2023-02-15T13:39:09;36.47;;;25.27;;
22490;SDS011;11412;50.802;4.350;2023-02-15T13:55:35;43.83;;;27.75;;
22490;SDS011;11412;50.802;4.350;2023-02-15T14:04:07;45.15;;;28.02;;
22490;SDS011;11412;50.802;4.350;2023-02-15T14:12:31;42.38;;;26.92;;
22490;SDS011;11412;50.802;4.350;2023-02-15T14:15:13;43.30;;;27.75;;
22490;SDS011;11412;50.802;4.350;2023-02-15T14:20:59;38.90;;;26.52;;
22490;SDS011;11412;50.802;4.350;2023-02-15T14:23:30;46.55;;;28.45;;
22490;SDS011;11412;50.802;4.350;2023-02-15T14:31:44;45.92;;;28.92;;
22490;SDS011;11412;50.802;4.350;2023-02-15T14:34:21;44.33;;;28.63;;
22490;SDS011;11412;50.802;4.350;2023-02-15T14:39:23;46.78;;;28.70;;
22490;SDS011;11412;50.802;4.350;2023-02-15T14:42:34;47.75;;;30.08;;
22490;SDS011;11412;50.802;4.350;2023-02-15T14:45:19;44.72;;;27.27;;
22490;SDS011;11412;50.802;4.350;2023-02-15T14:50:58;44.05;;;26.75;;
22490;SDS011;11412;50.802;4.350;2023-02-15T14:56:05;42.53;;;28.35;;
22490;SDS011;11412;50.802;4.350;2023-02-15T15:01:27;45.60;;;28.35;;
22490;SDS011;11412;50.802;4.350;2023-02-15T15:03:55;43.38;;;28.38;;
22490;SDS011;11412;50.802;4.350;2023-02-15T15:06:37;46.70;;;29.23;;
22490;SDS011;11412;50.802;4.350;2023-02-15T15:09:23;47.15;;;28.92;;
22490;SDS011;11412;50.802;4.350;2023-02-15T15:16:59;48.88;;;29.70;;
22490;SDS011;11412;50.802;4.350;2023-02-15T15:22:19;50.65;;;30.25;;
22490;SDS011;11412;50.802;4.350;2023-02-15T15:24:46;46.45;;;29.42;;
22490;SDS011;11412;50.802;4.350;2023-02-15T15:32:38;46.08;;;29.10;;
22490;SDS011;11412;50.802;4.350;2023-02-15T15:49:45;53.28;;;30.45;;
22490;SDS011;11412;50.802;4.350;2023-02-15T15:52:19;49.25;;;30.75;;
22490;SDS011;11412;50.802;4.350;2023-02-15T15:54:46;44.80;;;29.40;;
22490;SDS011;11412;50.802;4.350;2023-02-15T15:59:54;44.53;;;29.27;;
22490;SDS011;11412;50.802;4.350;2023-02-15T16:02:21;47.25;;;30.15;;
22490;SDS011;11412;50.802;4.350;2023-02-15T16:04:48;46.30;;;28.30;;
22490;SDS011;11412;50.802;4.350;2023-02-15T16:09:55;47.78;;;29.63;;
22490;SDS011;11412;50.802;4.350;2023-02-15T16:12:45;48.03;;;29.13;;
22490;SDS011;11412;50.802;4.350;2023-02-15T16:15:14;48.85;;;28.13;;
22490;SDS011;11412;50.802;4.350;2023-02-15T16:17:45;43.13;;;28.35;;
22490;SDS011;11412;50.802;4.350;2023-02-15T16:20:18;48.10;;;30.05;;
22490;SDS011;11412;50.802;4.350;2023-02-15T16:25:46;46.30;;;27.90;;
22490;SDS011;11412;50.802;4.350;2023-02-15T16:28:26;46.00;;;28.20;;
22490;SDS011;11412;50.802;4.350;2023-02-15T16:31:35;53.00;;;27.65;;
22490;SDS011;11412;50.802;4.350;2023-02-15T16:33:42;45.03;;;28.20;;
22490;SDS011;11412;50.802;4.350;2023-02-15T16:36:20;43.60;;;27.35;;
22490;SDS011;11412;50.802;4.350;2023-02-15T16:43:48;45.88;;;26.98;;
22490;SDS011;11412;50.802;4.350;2023-02-15T16:46:16;44.75;;;27.83;;
22490;SDS011;11412;50.802;4.350;2023-02-15T16:48:49;47.33;;;27.05;;
22490;SDS011;11412;50.802;4.350;2023-02-15T16:51:21;49.33;;;28.77;;
22490;SDS011;11412;50.802;4.350;2023-02-15T16:53:48;51.20;;;29.23;;
22490;SDS011;11412;50.802;4.350;2023-02-15T16:56:14;46.75;;;27.98;;
22490;SDS011;11412;50.802;4.350;2023-02-15T16:58:47;45.67;;;27.95;;
22490;SDS011;11412;50.802;4.350;2023-02-15T17:01:16;46.08;;;28.17;;
22490;SDS011;11412;50.802;4.350;2023-02-15T17:03:48;48.40;;;28.65;;
22490;SDS011;11412;50.802;4.350;2023-02-15T17:06:22;47.55;;;27.52;;
22490;SDS011;11412;50.802;4.350;2023-02-15T17:09:02;47.88;;;29.30;;
22490;SDS011;11412;50.802;4.350;2023-02-15T17:11:39;51.30;;;28.98;;
22490;SDS011;11412;50.802;4.350;2023-02-15T17:16:34;50.05;;;29.60;;
22490;SDS011;11412;50.802;4.350;2023-02-15T17:19:20;60.00;;;28.80;;
22490;SDS011;11412;50.802;4.350;2023-02-15T17:21:49;47.20;;;28.35;;
22490;SDS011;11412;50.802;4.350;2023-02-15T17:24:25;47.42;;;28.90;;
22490;SDS011;11412;50.802;4.350;2023-02-15T17:27:00;48.78;;;28.80;;
22490;SDS011;11412;50.802;4.350;2023-02-15T17:29:33;44.80;;;28.15;;
22490;SDS011;11412;50.802;4.350;2023-02-15T17:32:02;41.85;;;26.27;;
22490;SDS011;11412;50.802;4.350;2023-02-15T17:35:16;51.08;;;28.27;;
22490;SDS011;11412;50.802;4.350;2023-02-15T17:37:24;48.25;;;29.00;;
22490;SDS011;11412;50.802;4.350;2023-02-15T17:39:50;48.80;;;29.55;;
22490;SDS011;11412;50.802;4.350;2023-02-15T17:42:16;50.72;;;30.50;;
22490;SDS011;11412;50.802;4.350;2023-02-15T17:44:42;53.15;;;29.75;;
22490;SDS011;11412;50.802;4.350;2023-02-15T17:47:09;48.28;;;28.98;;
22490;SDS011;11412;50.802;4.350;2023-02-15T17:49:46;47.97;;;29.02;;
22490;SDS011;11412;50.802;4.350;2023-02-15T17:52:14;42.42;;;27.00;;
22490;SDS011;11412;50.802;4.350;2023-02-15T17:54:41;48.70;;;29.17;;